Time;durP1;ratioP1;P1;durP2;ratioP2;P2;SDS_P1;SDS_P2;PMS_P1;PMS_P2;Temp;Humidity;BMP_temperature;BMP_pressure;BME280_temperature;BME280_humidity;BME280_pressure;Samples;Min_cycle;Max_cycle;Signal;HPM_P1;HPM_P2
2023/09/09 00:00:06;;;;;;;12.33;11.33;;;18.80;67.60;;;;;;6205227;28;20610;-83
2023/09/09 00:03:10;;;;;;;12.83;11.83;;;18.80;67.60;;;;;;6195724;28;20240;-83
2023/09/09 00:06:16;;;;;;;12.03;11.20;;;18.80;67.70;;;;;;6195717;28;20344;-83
2023/09/09 00:09:19;;;;;;;11.73;10.87;;;18.80;67.70;;;;;;6189981;28;20247;-80
2023/09/09 00:12:22;;;;;;;13.20;11.90;;;18.70;67.90;;;;;;6203014;28;20263;-83
2023/09/09 00:15:29;;;;;;;12.50;11.50;;;18.70;68.30;;;;;;6198891;28;20370;-82
2023/09/09 00:18:32;;;;;;;12.60;11.60;;;18.70;68.30;;;;;;6205138;28;20270;-82
2023/09/09 00:21:35;;;;;;;12.87;11.80;;;18.60;68.40;;;;;;6205232;28;20263;-86
2023/09/09 00:24:38;;;;;;;12.37;11.47;;;18.60;68.60;;;;;;6207108;28;20232;-85
2023/09/09 00:27:41;;;;;;;11.30;10.50;;;18.60;68.70;;;;;;6208253;28;20239;-84
2023/09/09 00:30:46;;;;;;;12.40;11.33;;;18.50;68.90;;;;;;6199566;28;20334;-83
2023/09/09 00:33:49;;;;;;;13.67;12.43;;;18.50;68.90;;;;;;6178744;28;20228;-83
2023/09/09 00:36:53;;;;;;;12.13;11.23;;;18.40;69.10;;;;;;6180914;28;20259;-85
2023/09/09 00:39:56;;;;;;;13.17;12.17;;;18.40;69.20;;;;;;6188176;28;20783;-84
2023/09/09 00:43:01;;;;;;;14.70;13.50;;;18.30;69.40;;;;;;6181185;28;20783;-83
2023/09/09 00:46:07;;;;;;;12.03;11.23;;;18.30;69.70;;;;;;6185222;28;20251;-81
2023/09/09 00:49:10;;;;;;;14.17;12.90;;;18.30;69.70;;;;;;6190063;28;20334;-83
2023/09/09 00:52:14;;;;;;;13.30;12.20;;;18.20;69.70;;;;;;6186793;28;20936;-84
2023/09/09 00:55:17;;;;;;;14.30;13.10;;;18.20;69.90;;;;;;6188881;28;20231;-83
2023/09/09 00:58:20;;;;;;;14.43;13.13;;;18.20;70.00;;;;;;6174794;28;20248;-84
2023/09/09 01:01:27;;;;;;;14.37;13.17;;;18.20;70.20;;;;;;6176086;28;20754;-84
2023/09/09 01:04:31;;;;;;;13.10;12.20;;;18.10;70.30;;;;;;6186968;28;20236;-84
2023/09/09 01:07:45;;;;;;;14.07;12.73;;;18.10;70.40;;;;;;6193021;28;20270;-84
2023/09/09 01:10:48;;;;;;;12.87;11.83;;;18.10;70.50;;;;;;6191831;28;20263;-83
2023/09/09 01:13:51;;;;;;;13.70;12.70;;;18.10;70.50;;;;;;6184257;28;20307;-83
2023/09/09 01:16:57;;;;;;;13.73;12.63;;;18.10;70.50;;;;;;6189226;28;20235;-83
2023/09/09 01:20:12;;;;;;;14.30;13.13;;;18.10;70.60;;;;;;6183981;28;20736;-83
2023/09/09 01:23:17;;;;;;;15.90;14.27;;;18.00;70.60;;;;;;6213650;28;20239;-83
2023/09/09 01:26:20;;;;;;;13.37;12.27;;;18.10;70.70;;;;;;6205246;28;20289;-85
2023/09/09 01:29:24;;;;;;;15.47;14.27;;;18.00;70.70;;;;;;6216755;28;20242;-84
2023/09/09 01:32:27;;;;;;;15.00;13.83;;;18.00;71.10;;;;;;6214923;28;20298;-83
2023/09/09 01:35:31;;;;;;;14.47;13.33;;;18.00;70.80;;;;;;6217082;28;20750;-84
2023/09/09 01:38:35;;;;;;;12.77;11.77;;;18.00;70.80;;;;;;6201833;28;20252;-79
2023/09/09 01:41:38;;;;;;;12.93;11.93;;;18.00;70.90;;;;;;6196526;28;20247;-83
2023/09/09 01:44:43;;;;;;;14.27;13.07;;;17.90;71.00;;;;;;6209199;28;20399;-83
2023/09/09 01:47:47;;;;;;;12.67;11.57;;;17.80;71.20;;;;;;6218078;28;20267;-84
2023/09/09 01:50:50;;;;;;;12.50;11.60;;;17.80;71.20;;;;;;6206895;28;20731;-83
2023/09/09 01:53:54;;;;;;;13.20;12.20;;;17.80;71.30;;;;;;6212021;28;20775;-79
2023/09/09 01:56:58;;;;;;;14.70;13.40;;;17.70;71.50;;;;;;6224558;28;20246;-80
2023/09/09 02:00:06;;;;;;;13.07;12.07;;;17.70;71.70;;;;;;6195490;28;20235;-84
2023/09/09 02:03:10;;;;;;;13.33;12.13;;;17.60;71.60;;;;;;6205308;28;20704;-80
2023/09/09 02:06:13;;;;;;;13.27;12.23;;;17.60;71.70;;;;;;6212294;28;20235;-84
2023/09/09 02:09:21;;;;;;;14.20;13.10;;;17.50;71.70;;;;;;6202851;28;20255;-83
2023/09/09 02:12:24;;;;;;;14.63;13.43;;;17.50;71.80;;;;;;6204955;28;20247;-84
2023/09/09 02:15:27;;;;;;;13.80;12.80;;;17.50;72.20;;;;;;6196398;28;20231;-81
2023/09/09 02:18:30;;;;;;;13.57;12.50;;;17.50;72.10;;;;;;6232249;28;20727;-86
2023/09/09 02:21:36;;;;;;;11.80;11.00;;;17.50;71.90;;;;;;6233862;28;20247;-82
2023/09/09 02:24:40;;;;;;;12.67;11.80;;;17.50;71.90;;;;;;6219942;28;20298;-82
2023/09/09 02:27:43;;;;;;;12.60;11.80;;;17.50;71.90;;;;;;6207286;28;20242;-84
2023/09/09 02:30:46;;;;;;;13.47;12.57;;;17.40;72.00;;;;;;6201681;28;20264;-85
2023/09/09 02:33:49;;;;;;;11.43;10.73;;;17.30;72.10;;;;;;6193159;28;20235;-82
2023/09/09 02:37:16;;;;;;;12.77;11.87;;;17.30;72.10;;;;;;6208152;28;20563;-85
2023/09/09 02:40:21;;;;;;;13.30;12.20;;;17.20;72.30;;;;;;6200867;28;20371;-82
2023/09/09 02:43:24;;;;;;;15.07;13.77;;;17.20;72.40;;;;;;6198347;28;20243;-83
2023/09/09 02:46:27;;;;;;;13.90;12.90;;;17.20;72.50;;;;;;6235168;28;20227;-77
2023/09/09 02:49:31;;;;;;;12.50;11.60;;;17.10;72.70;;;;;;6216662;28;20315;-81
2023/09/09 02:52:34;;;;;;;12.90;12.10;;;17.20;72.70;;;;;;6193374;28;20250;-83
2023/09/09 02:55:38;;;;;;;13.03;12.13;;;17.10;72.80;;;;;;6203772;28;20237;-82
2023/09/09 02:58:42;;;;;;;14.57;13.17;;;17.00;73.00;;;;;;6217454;28;22309;-86
2023/09/09 03:01:48;;;;;;;13.90;12.80;;;17.00;73.10;;;;;;6210382;28;20305;-82
2023/09/09 03:04:51;;;;;;;15.37;14.17;;;17.00;73.20;;;;;;6213213;28;20249;-84
2023/09/09 03:07:58;;;;;;;14.57;13.47;;;17.00;73.30;;;;;;6199451;28;20676;-83
2023/09/09 03:11:02;;;;;;;14.30;13.20;;;17.00;73.30;;;;;;6210405;28;20232;-84
2023/09/09 03:14:05;;;;;;;15.27;14.03;;;17.00;73.50;;;;;;6229419;28;20243;-79
2023/09/09 03:17:09;;;;;;;14.53;13.50;;;17.00;73.70;;;;;;6223181;28;20414;-77
2023/09/09 03:20:13;;;;;;;16.07;14.67;;;17.00;73.70;;;;;;6217745;28;20247;-82
2023/09/09 03:23:16;;;;;;;16.07;14.87;;;17.00;73.70;;;;;;6214655;28;20246;-80
2023/09/09 03:26:25;;;;;;;15.47;14.27;;;17.00;73.60;;;;;;6207708;28;20727;-83
2023/09/09 03:29:28;;;;;;;16.57;15.17;;;17.00;73.60;;;;;;6203951;28;20239;-86
2023/09/09 03:32:31;;;;;;;15.40;14.10;;;17.00;73.80;;;;;;6200820;28;20269;-84
2023/09/09 03:35:34;;;;;;;15.23;13.90;;;17.00;73.90;;;;;;6209141;28;20250;-86
2023/09/09 03:38:37;;;;;;;14.27;13.13;;;17.00;73.70;;;;;;6208506;28;20238;-83
2023/09/09 03:41:42;;;;;;;15.27;13.97;;;17.00;73.60;;;;;;6195482;28;20232;-84
2023/09/09 03:44:45;;;;;;;15.17;14.00;;;17.00;73.60;;;;;;6206100;28;20717;-82
2023/09/09 03:47:48;;;;;;;14.97;13.57;;;16.90;73.70;;;;;;6207147;28;20788;-82
2023/09/09 03:50:51;;;;;;;14.73;13.70;;;16.90;73.70;;;;;;6202874;28;20797;-80
2023/09/09 03:53:54;;;;;;;14.80;13.50;;;16.90;73.70;;;;;;6202292;28;20242;-80
2023/09/09 03:56:59;;;;;;;14.87;13.67;;;16.90;73.70;;;;;;6217534;28;20232;-82
2023/09/09 04:00:03;;;;;;;15.90;14.50;;;16.80;73.80;;;;;;6211185;28;20264;-81
2023/09/09 04:03:07;;;;;;;16.67;15.07;;;16.80;73.80;;;;;;6201607;28;20868;-81
2023/09/09 04:06:13;;;;;;;17.97;16.37;;;16.80;73.80;;;;;;6214449;28;20238;-79
2023/09/09 04:09:22;;;;;;;17.47;15.73;;;16.80;74.00;;;;;;6215723;28;21047;-79
2023/09/09 04:12:28;;;;;;;15.53;14.13;;;16.80;74.30;;;;;;6206832;28;20231;-81
2023/09/09 04:15:31;;;;;;;14.83;13.73;;;16.80;74.10;;;;;;6204001;28;20760;-79
2023/09/09 04:18:35;;;;;;;14.53;13.40;;;16.70;74.00;;;;;;6205347;28;20290;-82
2023/09/09 04:21:51;;;;;;;16.93;15.30;;;16.70;74.10;;;;;;6209881;28;20244;-81
2023/09/09 04:24:54;;;;;;;18.77;17.13;;;16.70;74.10;;;;;;6210967;28;20263;-80
2023/09/09 04:27:59;;;;;;;17.97;16.47;;;16.70;74.20;;;;;;6215824;28;20314;-84
2023/09/09 04:31:02;;;;;;;17.03;15.50;;;16.70;74.40;;;;;;6203899;28;20386;-81
2023/09/09 04:34:06;;;;;;;16.77;15.37;;;16.70;74.40;;;;;;6198423;28;20250;-80
2023/09/09 04:37:09;;;;;;;16.70;15.40;;;16.70;74.30;;;;;;6199640;28;20289;-82
2023/09/09 04:40:13;;;;;;;18.80;17.07;;;16.70;74.40;;;;;;6209547;28;20236;-81
2023/09/09 04:43:20;;;;;;;16.20;14.80;;;16.70;74.30;;;;;;6214958;28;20235;-81
2023/09/09 04:46:23;;;;;;;14.50;13.40;;;16.70;74.30;;;;;;6228686;28;20239;-82
2023/09/09 04:49:27;;;;;;;18.47;16.87;;;16.70;74.30;;;;;;6202821;28;20235;-82
2023/09/09 04:52:30;;;;;;;15.30;14.00;;;16.70;74.40;;;;;;6216005;28;20243;-81
2023/09/09 04:55:33;;;;;;;14.90;13.70;;;16.70;74.50;;;;;;6212462;28;20792;-81
2023/09/09 04:58:38;;;;;;;15.40;14.13;;;16.70;74.40;;;;;;6214338;28;20255;-80
2023/09/09 05:01:41;;;;;;;20.60;17.60;;;16.70;74.40;;;;;;6198225;28;20251;-82
2023/09/09 05:04:47;;;;;;;17.23;15.60;;;16.70;74.60;;;;;;6211426;28;20258;-82
2023/09/09 05:07:51;;;;;;;15.80;14.47;;;16.70;74.60;;;;;;6210326;28;20255;-80
2023/09/09 05:10:54;;;;;;;15.87;14.57;;;16.70;74.60;;;;;;6210798;28;20243;-82
2023/09/09 05:13:59;;;;;;;19.30;17.23;;;16.70;74.70;;;;;;6205881;28;20358;-81
2023/09/09 05:17:02;;;;;;;18.80;17.00;;;16.70;75.10;;;;;;6209745;28;20902;-78
2023/09/09 05:20:06;;;;;;;19.07;17.40;;;16.80;74.90;;;;;;6213010;28;20849;-80
2023/09/09 05:23:11;;;;;;;17.97;16.13;;;16.80;75.00;;;;;;6195739;28;20232;-80
2023/09/09 05:26:14;;;;;;;18.20;16.60;;;16.90;74.90;;;;;;6208101;28;20873;-79
2023/09/09 05:29:18;;;;;;;19.20;17.40;;;16.90;74.80;;;;;;6208592;28;20247;-78
2023/09/09 05:32:22;;;;;;;17.07;15.57;;;16.90;75.00;;;;;;6208412;28;20319;-80
2023/09/09 05:35:25;;;;;;;17.10;15.57;;;17.00;74.90;;;;;;6214231;28;20227;-81
2023/09/09 05:38:29;;;;;;;16.70;15.33;;;17.00;74.70;;;;;;6211664;28;20287;-81
2023/09/09 05:41:32;;;;;;;18.90;17.07;;;17.10;74.70;;;;;;6200041;28;20247;-82
2023/09/09 05:44:36;;;;;;;17.63;16.07;;;17.10;74.50;;;;;;6208533;28;20250;-80
2023/09/09 05:47:40;;;;;;;19.57;17.67;;;17.20;74.50;;;;;;6189054;28;20402;-82
2023/09/09 05:50:43;;;;;;;18.17;16.47;;;17.20;74.40;;;;;;6204674;28;20255;-82
2023/09/09 05:53:48;;;;;;;17.87;16.07;;;17.20;74.10;;;;;;6209311;28;20299;-81
2023/09/09 05:56:51;;;;;;;18.13;16.47;;;17.30;74.00;;;;;;6211688;28;20243;-81
2023/09/09 05:59:55;;;;;;;18.07;16.57;;;17.40;73.60;;;;;;6210583;28;20322;-82
2023/09/09 06:02:58;;;;;;;19.10;17.20;;;17.50;73.30;;;;;;6201952;28;20818;-80
2023/09/09 06:06:01;;;;;;;17.60;16.13;;;17.50;73.20;;;;;;6195101;28;20242;-83
2023/09/09 06:09:05;;;;;;;17.30;15.90;;;17.70;73.10;;;;;;6209624;28;20357;-81
2023/09/09 06:12:08;;;;;;;17.70;16.10;;;17.80;72.80;;;;;;6175679;28;20738;-81
2023/09/09 06:15:13;;;;;;;16.40;14.90;;;17.90;72.40;;;;;;6205867;28;20740;-82
2023/09/09 06:18:16;;;;;;;16.20;14.80;;;18.00;72.30;;;;;;6210218;28;20989;-81
2023/09/09 06:21:21;;;;;;;14.73;13.43;;;18.50;71.70;;;;;;6203588;28;20310;-82
2023/09/09 06:24:24;;;;;;;15.97;14.57;;;18.90;70.40;;;;;;6188692;28;20232;-80
2023/09/09 06:27:27;;;;;;;15.00;13.90;;;19.20;69.50;;;;;;6208085;28;20283;-84
2023/09/09 06:30:34;;;;;;;15.57;14.37;;;19.20;68.70;;;;;;6216621;28;20243;-82
2023/09/09 06:33:38;;;;;;;16.97;15.40;;;19.20;68.70;;;;;;6206879;28;20255;-83
2023/09/09 06:36:45;;;;;;;15.17;13.87;;;19.10;68.60;;;;;;6207967;28;20251;-81
2023/09/09 06:39:48;;;;;;;15.30;14.00;;;18.90;68.90;;;;;;6195260;28;20334;-81
2023/09/09 06:42:52;;;;;;;15.63;14.30;;;18.90;69.10;;;;;;6204574;28;20383;-80
2023/09/09 06:45:59;;;;;;;15.57;14.17;;;18.90;69.30;;;;;;6206645;28;20707;-82
2023/09/09 06:49:03;;;;;;;14.80;13.50;;;18.90;69.90;;;;;;6196345;28;20262;-81
2023/09/09 06:52:07;;;;;;;15.93;14.27;;;19.10;69.10;;;;;;6202292;28;20247;-81
2023/09/09 06:55:10;;;;;;;15.07;13.77;;;19.20;68.80;;;;;;6205846;28;20273;-81
2023/09/09 06:58:13;;;;;;;14.17;12.93;;;19.20;68.80;;;;;;6205297;28;20830;-81
2023/09/09 07:01:18;;;;;;;13.87;12.77;;;19.30;68.70;;;;;;6193396;28;20254;-83
2023/09/09 07:04:21;;;;;;;13.07;12.13;;;19.70;68.30;;;;;;6197363;28;20311;-79
2023/09/09 07:07:25;;;;;;;13.90;12.80;;;19.90;67.50;;;;;;6200885;28;20862;-81
2023/09/09 07:10:35;;;;;;;15.57;14.07;;;20.00;67.10;;;;;;6200571;28;20334;-81
2023/09/09 07:13:38;;;;;;;14.00;12.63;;;20.00;66.80;;;;;;6208007;28;20771;-82
2023/09/09 07:16:43;;;;;;;13.60;12.50;;;19.90;67.10;;;;;;6203825;28;20239;-77
2023/09/09 07:19:47;;;;;;;14.30;12.90;;;19.90;67.00;;;;;;6208435;28;20239;-80
2023/09/09 07:22:50;;;;;;;12.40;11.43;;;20.00;66.90;;;;;;6206550;28;20239;-80
2023/09/09 07:25:53;;;;;;;13.93;12.63;;;20.00;66.90;;;;;;6212463;28;20322;-82
2023/09/09 07:28:57;;;;;;;14.03;12.73;;;20.10;67.00;;;;;;6211902;28;20247;-81
2023/09/09 07:32:02;;;;;;;11.90;10.90;;;20.10;66.80;;;;;;6204994;28;20732;-83
2023/09/09 07:35:07;;;;;;;12.93;11.83;;;20.30;66.70;;;;;;6202396;28;20246;-81
2023/09/09 07:38:10;;;;;;;12.57;11.67;;;20.30;66.10;;;;;;6204593;28;20239;-81
2023/09/09 07:41:13;;;;;;;13.17;12.17;;;20.50;65.90;;;;;;6180588;28;20756;-82
2023/09/09 07:44:16;;;;;;;12.60;11.60;;;20.50;65.90;;;;;;6171616;28;20238;-85
2023/09/09 07:47:21;;;;;;;12.83;11.57;;;20.60;65.50;;;;;;6209324;28;20269;-80
2023/09/09 07:50:24;;;;;;;11.80;10.97;;;20.60;65.40;;;;;;6214833;28;20242;-80
2023/09/09 07:53:27;;;;;;;12.17;11.27;;;20.80;65.20;;;;;;6208732;28;20238;-82
2023/09/09 07:56:30;;;;;;;12.20;11.00;;;20.90;64.70;;;;;;6208370;28;20372;-80
2023/09/09 07:59:33;;;;;;;11.70;10.80;;;21.00;64.40;;;;;;6209346;28;20282;-83
2023/09/09 08:02:38;;;;;;;10.27;9.57;;;21.10;64.00;;;;;;6208844;28;20243;-82
2023/09/09 08:05:43;;;;;;;11.73;10.77;;;21.30;63.90;;;;;;6210524;28;20613;-81
2023/09/09 08:08:49;;;;;;;10.57;9.67;;;21.40;63.30;;;;;;6212092;28;20262;-75
2023/09/09 08:11:52;;;;;;;11.17;10.00;;;21.60;63.00;;;;;;6213723;28;20865;-79
2023/09/09 08:15:05;;;;;;;10.77;9.73;;;21.70;62.60;;;;;;6200982;28;20743;-79
2023/09/09 08:18:10;;;;;;;10.83;10.03;;;21.70;62.80;;;;;;6202273;28;20239;-79
2023/09/09 08:21:13;;;;;;;11.03;10.03;;;21.70;62.20;;;;;;6205315;28;20313;-78
2023/09/09 08:24:16;;;;;;;10.60;9.60;;;21.90;61.70;;;;;;6211868;28;20690;-80
2023/09/09 08:27:19;;;;;;;11.03;10.03;;;22.10;60.80;;;;;;6200351;28;20312;-80
2023/09/09 08:30:22;;;;;;;10.77;9.70;;;22.30;60.40;;;;;;6219370;28;20250;-77
2023/09/09 08:33:27;;;;;;;10.27;9.50;;;22.40;60.60;;;;;;6208515;28;20754;-77
2023/09/09 08:36:30;;;;;;;9.70;9.00;;;22.50;60.30;;;;;;6206180;28;20236;-76
2023/09/09 08:39:33;;;;;;;11.63;9.00;;;22.60;60.60;;;;;;6205144;28;20252;-78
2023/09/09 08:42:48;;;;;;;9.53;8.80;;;22.80;59.50;;;;;;6204555;28;20746;-79
2023/09/09 08:45:59;;;;;;;9.83;8.57;;;22.90;59.00;;;;;;6209693;28;20240;-78
2023/09/09 08:49:05;;;;;;;9.83;8.93;;;23.10;59.10;;;;;;6207587;28;20838;-79
2023/09/09 08:52:17;;;;;;;9.07;8.27;;;23.40;58.70;;;;;;6207078;28;20263;-81
2023/09/09 08:55:21;;;;;;;7.73;7.13;;;23.50;57.90;;;;;;6203445;28;20248;-78
2023/09/09 08:58:25;;;;;;;9.00;8.20;;;23.60;57.10;;;;;;6202844;28;20613;-78
2023/09/09 09:01:29;;;;;;;9.47;8.77;;;23.70;56.90;;;;;;6214898;28;20762;-81
2023/09/09 09:04:35;;;;;;;9.70;8.77;;;23.90;57.10;;;;;;6214566;28;20329;-78
2023/09/09 09:07:40;;;;;;;9.50;8.80;;;24.00;55.90;;;;;;6199196;28;20565;-79
2023/09/09 09:10:47;;;;;;;8.67;8.17;;;24.20;55.60;;;;;;6205335;28;20247;-78
2023/09/09 09:13:50;;;;;;;8.83;8.07;;;24.30;55.80;;;;;;6198711;28;20235;-77
2023/09/09 09:16:54;;;;;;;9.97;9.17;;;24.40;55.70;;;;;;6209874;28;20235;-79
2023/09/09 09:19:59;;;;;;;9.20;7.90;;;24.50;55.30;;;;;;6211682;28;20401;-79
2023/09/09 09:23:04;;;;;;;9.70;8.83;;;24.60;55.60;;;;;;6203395;28;20235;-78
2023/09/09 09:26:23;;;;;;;9.33;8.43;;;24.70;54.20;;;;;;6208731;28;20238;-77
2023/09/09 09:29:39;;;;;;;8.93;8.27;;;24.80;53.70;;;;;;6207948;28;20239;-78
2023/09/09 09:32:43;;;;;;;8.70;7.90;;;25.00;53.40;;;;;;6208309;28;20378;-77
2023/09/09 09:35:47;;;;;;;9.17;8.37;;;25.20;53.20;;;;;;6208783;28;20288;-79
2023/09/09 09:38:51;;;;;;;9.90;7.90;;;25.40;52.20;;;;;;6209418;28;20469;-78
2023/09/09 09:41:54;;;;;;;9.03;8.23;;;25.40;52.60;;;;;;6215344;28;20242;-81
2023/09/09 09:45:09;;;;;;;17.43;11.03;;;25.50;52.80;;;;;;6202585;28;20242;-78
2023/09/09 09:48:26;;;;;;;9.00;8.27;;;25.50;52.70;;;;;;6195156;28;20247;-79
2023/09/09 09:51:43;;;;;;;7.43;7.00;;;25.60;52.50;;;;;;6203732;28;20274;-78
2023/09/09 09:54:51;;;;;;;8.93;8.00;;;25.80;51.70;;;;;;6210141;28;20688;-78
2023/09/09 09:57:55;;;;;;;8.50;7.90;;;26.00;51.70;;;;;;6186628;28;20243;-78
2023/09/09 10:01:02;;;;;;;11.43;8.30;;;26.20;51.50;;;;;;6179625;28;20251;-78
2023/09/09 10:04:07;;;;;;;8.23;7.63;;;26.40;51.20;;;;;;6185499;28;20313;-76
2023/09/09 10:07:16;;;;;;;9.20;8.40;;;26.40;50.80;;;;;;6182984;28;20243;-77
2023/09/09 10:10:22;;;;;;;9.10;8.30;;;26.60;50.90;;;;;;6182511;28;20458;-78
2023/09/09 10:13:34;;;;;;;8.10;7.70;;;26.80;49.70;;;;;;6195698;28;20240;-79
2023/09/09 10:16:39;;;;;;;8.57;7.90;;;26.90;49.00;;;;;;6210121;28;20232;-77
2023/09/09 10:19:43;;;;;;;7.93;7.43;;;26.90;49.80;;;;;;6204200;28;20231;-77
2023/09/09 10:22:53;;;;;;;10.27;7.43;;;27.10;48.20;;;;;;6200229;28;20231;-78
2023/09/09 10:25:57;;;;;;;9.13;8.30;;;27.30;47.80;;;;;;6213320;28;20242;-79
2023/09/09 10:29:01;;;;;;;9.20;8.00;;;27.40;48.30;;;;;;6212725;28;20266;-78
2023/09/09 10:32:06;;;;;;;7.47;7.00;;;27.50;48.00;;;;;;6199174;28;20291;-80
2023/09/09 10:35:10;;;;;;;7.80;7.30;;;27.70;47.00;;;;;;6200971;28;20318;-78
2023/09/09 10:38:16;;;;;;;8.17;7.13;;;27.90;46.90;;;;;;6211125;28;20242;-78
2023/09/09 10:41:19;;;;;;;6.97;6.43;;;28.00;46.90;;;;;;6206475;28;20231;-79
2023/09/09 10:44:23;;;;;;;8.33;7.67;;;28.20;46.90;;;;;;6201521;28;20326;-79
2023/09/09 10:47:26;;;;;;;7.20;6.67;;;28.30;46.10;;;;;;6203516;28;20231;-80
2023/09/09 10:50:40;;;;;;;7.57;6.90;;;28.50;44.90;;;;;;6207722;28;20223;-82
2023/09/09 10:53:45;;;;;;;9.20;6.93;;;28.60;45.70;;;;;;6204233;28;20247;-80
2023/09/09 10:56:49;;;;;;;8.03;7.53;;;28.50;45.60;;;;;;6204186;28;20278;-78
2023/09/09 10:59:52;;;;;;;7.90;7.10;;;28.70;45.40;;;;;;6200460;28;20308;-79
2023/09/09 11:02:57;;;;;;;8.45;7.63;;;28.70;45.50;;;;;;6196134;28;20971;-79
2023/09/09 11:06:03;;;;;;;6.55;6.05;;;28.70;44.80;;;;;;6187942;28;20314;-78
2023/09/09 11:09:11;;;;;;;6.57;5.97;;;28.80;45.40;;;;;;6200122;28;20915;-78
2023/09/09 11:12:16;;;;;;;7.60;6.30;;;28.80;44.80;;;;;;6203130;28;20326;-78
2023/09/09 11:15:19;;;;;;;7.20;6.80;;;28.70;44.40;;;;;;6204642;28;20360;-79
2023/09/09 11:18:22;;;;;;;6.80;6.22;;;28.80;44.60;;;;;;6198824;28;20235;-78
2023/09/09 11:21:26;;;;;;;7.22;6.63;;;28.90;44.40;;;;;;6198863;28;20235;-78
2023/09/09 11:24:30;;;;;;;7.18;6.50;;;28.90;44.70;;;;;;6199101;28;20238;-78
2023/09/09 11:27:34;;;;;;;6.40;6.03;;;29.00;44.10;;;;;;6200236;28;20593;-76
2023/09/09 11:30:41;;;;;;;7.75;7.07;;;29.10;44.30;;;;;;6192945;28;20326;-77
2023/09/09 11:33:45;;;;;;;7.93;5.90;;;29.20;44.70;;;;;;6209883;28;20407;-80
2023/09/09 11:36:48;;;;;;;6.20;5.88;;;29.30;44.50;;;;;;6206107;28;20577;-78
2023/09/09 11:39:54;;;;;;;5.78;5.47;;;29.20;45.20;;;;;;6204139;28;20386;-78
2023/09/09 11:42:57;;;;;;;6.10;5.80;;;29.20;45.30;;;;;;6198337;28;21445;-78
2023/09/09 11:46:00;;;;;;;5.90;5.70;;;29.30;44.60;;;;;;6203887;28;20643;-80
2023/09/09 11:49:04;;;;;;;6.55;5.78;;;29.40;44.70;;;;;;6197205;28;20386;-80
2023/09/09 11:52:07;;;;;;;6.25;6.03;;;29.40;44.60;;;;;;6207179;28;20327;-80
2023/09/09 11:55:17;;;;;;;5.45;5.15;;;29.40;45.00;;;;;;6198366;28;20245;-81
2023/09/09 11:58:20;;;;;;;6.90;6.32;;;29.40;43.90;;;;;;6201761;28;20246;-81
2023/09/09 12:01:46;;;;;;;5.85;5.55;;;29.50;43.30;;;;;;6210022;28;20323;-82
2023/09/09 12:05:00;;;;;;;6.00;5.60;;;29.50;43.40;;;;;;6201182;28;20247;-80
2023/09/09 12:08:05;;;;;;;6.18;5.70;;;29.70;43.60;;;;;;6203873;28;20236;-79
2023/09/09 12:11:11;;;;;;;5.90;5.60;;;29.80;43.00;;;;;;6200617;28;20239;-82
2023/09/09 12:14:15;;;;;;;6.35;5.45;;;30.00;43.20;;;;;;6208429;28;20251;-80
2023/09/09 12:17:19;;;;;;;5.97;5.57;;;30.00;42.60;;;;;;6210169;28;20239;-83
2023/09/09 12:20:22;;;;;;;5.78;5.40;;;30.00;42.50;;;;;;6206706;28;20243;-82
2023/09/09 12:23:29;;;;;;;5.72;5.53;;;30.00;42.50;;;;;;6210489;28;20232;-80
2023/09/09 12:26:34;;;;;;;5.57;5.35;;;29.90;42.30;;;;;;6194645;28;20236;-81
2023/09/09 12:29:45;;;;;;;5.88;5.53;;;30.00;42.60;;;;;;6201001;28;20284;-79
2023/09/09 12:32:48;;;;;;;5.68;5.38;;;30.10;42.60;;;;;;6204167;28;20243;-78
2023/09/09 12:35:52;;;;;;;6.43;6.13;;;30.00;42.50;;;;;;6211372;28;20231;-78
2023/09/09 12:38:56;;;;;;;5.90;5.35;;;30.00;42.40;;;;;;6210057;28;20237;-80
2023/09/09 12:42:05;;;;;;;5.43;5.22;;;30.10;42.10;;;;;;6210192;28;20295;-78
2023/09/09 12:45:11;;;;;;;6.25;5.85;;;30.00;42.40;;;;;;6204041;28;21310;-79
2023/09/09 12:48:15;;;;;;;5.60;5.30;;;30.10;42.70;;;;;;6215155;28;20247;-79
2023/09/09 12:51:21;;;;;;;5.72;5.40;;;30.20;42.20;;;;;;6212971;28;20860;-78
2023/09/09 12:54:24;;;;;;;5.88;5.40;;;30.20;41.90;;;;;;6208381;28;20335;-80
2023/09/09 12:57:30;;;;;;;5.70;5.45;;;30.10;41.80;;;;;;6202140;28;20235;-76
2023/09/09 13:00:33;;;;;;;5.50;5.25;;;30.10;42.30;;;;;;6198273;28;20240;-77
2023/09/09 13:03:36;;;;;;;5.40;5.20;;;30.10;40.30;;;;;;6202508;28;20236;-78
2023/09/09 13:06:40;;;;;;;5.85;5.32;;;30.00;41.70;;;;;;6200537;28;20235;-78
2023/09/09 13:09:43;;;;;;;5.00;4.80;;;30.00;41.30;;;;;;6202077;28;20239;-78
2023/09/09 13:12:48;;;;;;;5.28;4.85;;;29.90;41.40;;;;;;6203979;28;20236;-77
2023/09/09 13:15:51;;;;;;;6.43;5.55;;;30.00;41.10;;;;;;6205500;28;20267;-78
2023/09/09 13:18:54;;;;;;;5.47;5.07;;;30.20;41.10;;;;;;6201357;28;20677;-78
2023/09/09 13:21:57;;;;;;;5.13;4.80;;;30.30;42.10;;;;;;6207205;28;20285;-76
2023/09/09 13:25:01;;;;;;;5.97;5.68;;;30.50;42.80;;;;;;6201795;28;20254;-78
2023/09/09 13:28:07;;;;;;;5.35;5.05;;;30.50;41.80;;;;;;6199970;28;20327;-76
2023/09/09 13:31:10;;;;;;;6.20;5.80;;;30.50;41.50;;;;;;6207888;28;20630;-77
2023/09/09 13:34:13;;;;;;;6.55;5.32;;;30.50;41.20;;;;;;6194180;28;20255;-81
2023/09/09 13:37:16;;;;;;;5.88;5.40;;;30.50;41.00;;;;;;6196976;28;20243;-80
2023/09/09 13:40:19;;;;;;;5.22;5.00;;;30.50;41.70;;;;;;6208496;28;20238;-77
2023/09/09 13:43:24;;;;;;;5.30;5.10;;;30.50;42.10;;;;;;6204942;28;20774;-79
2023/09/09 13:46:27;;;;;;;5.97;5.57;;;30.60;42.60;;;;;;6209009;28;20720;-80
2023/09/09 13:49:30;;;;;;;5.13;4.93;;;30.60;42.50;;;;;;6201744;28;20359;-78
2023/09/09 13:52:35;;;;;;;5.30;4.90;;;30.60;42.40;;;;;;6209345;28;20231;-77
2023/09/09 13:55:38;;;;;;;5.78;5.47;;;30.60;42.10;;;;;;6211270;28;20274;-82
2023/09/09 13:58:42;;;;;;;6.35;5.10;;;30.50;42.00;;;;;;6205013;28;20720;-78
2023/09/09 14:01:45;;;;;;;5.18;4.97;;;30.60;42.30;;;;;;6202909;28;20243;-78
2023/09/09 14:04:48;;;;;;;5.95;5.53;;;30.60;42.10;;;;;;6201842;28;20736;-79
2023/09/09 14:07:52;;;;;;;5.43;5.07;;;30.70;42.90;;;;;;6205145;28;20246;-80
2023/09/09 14:10:55;;;;;;;5.80;5.28;;;30.60;41.80;;;;;;6201183;28;20243;-79
2023/09/09 14:13:59;;;;;;;5.43;5.13;;;30.50;41.70;;;;;;6205463;28;20235;-80
2023/09/09 14:17:03;;;;;;;5.97;5.65;;;30.50;42.10;;;;;;6208026;28;20661;-81
2023/09/09 14:20:08;;;;;;;11.00;6.18;;;30.40;42.80;;;;;;6205261;28;20264;-78
2023/09/09 14:23:11;;;;;;;6.50;6.20;;;30.00;42.50;;;;;;6217847;28;20870;-80
2023/09/09 14:26:16;;;;;;;5.72;5.47;;;29.90;43.20;;;;;;6207178;28;20828;-82
2023/09/09 14:29:21;;;;;;;5.65;5.25;;;30.10;43.00;;;;;;6213012;28;20631;-79
2023/09/09 14:32:24;;;;;;;5.85;5.55;;;30.10;43.10;;;;;;6220700;28;20240;-75
2023/09/09 14:35:27;;;;;;;6.30;6.00;;;30.30;43.10;;;;;;6233140;28;20230;-77
2023/09/09 14:38:31;;;;;;;5.90;5.60;;;30.10;43.00;;;;;;6201423;28;20246;-78
2023/09/09 14:41:34;;;;;;;5.78;5.47;;;30.20;43.00;;;;;;6203774;28;20244;-79
2023/09/09 14:44:38;;;;;;;5.25;4.88;;;30.20;42.90;;;;;;6203002;28;20309;-79
2023/09/09 14:47:41;;;;;;;6.07;5.70;;;30.30;42.80;;;;;;6204312;28;20245;-78
2023/09/09 14:50:45;;;;;;;5.28;5.00;;;30.30;42.80;;;;;;6211174;28;20732;-79
2023/09/09 14:53:48;;;;;;;5.00;4.80;;;30.30;43.20;;;;;;6190457;28;20814;-78
2023/09/09 14:56:51;;;;;;;6.18;5.78;;;30.30;42.20;;;;;;6187697;28;20847;-79
2023/09/09 14:59:57;;;;;;;6.35;5.85;;;30.30;42.50;;;;;;6203731;28;20235;-80
2023/09/09 15:03:00;;;;;;;5.65;5.15;;;30.30;42.50;;;;;;6206544;28;20280;-78
2023/09/09 15:06:03;;;;;;;6.32;5.82;;;30.30;42.90;;;;;;6216043;28;20836;-80
2023/09/09 15:09:06;;;;;;;5.65;5.25;;;30.40;43.00;;;;;;6197823;28;20288;-80
2023/09/09 15:12:09;;;;;;;4.90;4.72;;;30.40;42.60;;;;;;6188376;28;20232;-80
2023/09/09 15:15:14;;;;;;;6.60;5.43;;;30.30;42.20;;;;;;6199226;28;20785;-78
2023/09/09 15:18:17;;;;;;;6.93;6.30;;;30.30;42.30;;;;;;6209386;28;20260;-78
2023/09/09 15:21:20;;;;;;;5.38;5.05;;;30.50;42.50;;;;;;6194609;28;20799;-77
2023/09/09 15:24:24;;;;;;;6.22;5.82;;;30.50;42.10;;;;;;6208311;28;20239;-76
2023/09/09 15:27:27;;;;;;;6.60;6.20;;;30.50;42.10;;;;;;6207401;28;20756;-77
2023/09/09 15:30:31;;;;;;;5.72;5.43;;;30.40;43.20;;;;;;6198432;28;20267;-78
2023/09/09 15:33:35;;;;;;;7.43;6.82;;;30.20;42.60;;;;;;6202502;28;20244;-78
2023/09/09 15:36:38;;;;;;;6.68;6.15;;;30.00;43.20;;;;;;6198950;28;20784;-78
2023/09/09 15:39:41;;;;;;;8.27;6.00;;;29.70;43.50;;;;;;6196990;28;20286;-79
2023/09/09 15:42:44;;;;;;;6.47;6.07;;;29.50;43.70;;;;;;6206314;28;20274;-79
2023/09/09 15:45:51;;;;;;;5.47;5.28;;;29.30;44.20;;;;;;6208343;28;20244;-79